Time;durP1;ratioP1;P1;durP2;ratioP2;P2;SDS_P1;SDS_P2;PMS_P1;PMS_P2;Temp;Humidity;BMP_temperature;BMP_pressure;BME280_temperature;BME280_humidity;BME280_pressure;Samples;Min_cycle;Max_cycle;Signal;HPM_P1;HPM_P2
2023/06/22 00:01:02;;;;;;;8.38;7.57;;;;;;;24.48;65.73;97355.66;5014185;28;20216;-87
2023/06/22 00:03:28;;;;;;;7.88;7.18;;;;;;;24.70;65.87;97406.97;5026636;28;20133;-89
2023/06/22 00:05:53;;;;;;;7.43;6.65;;;;;;;24.66;65.44;97432.72;5003204;28;20105;-86
2023/06/22 00:08:19;;;;;;;7.50;6.80;;;;;;;24.78;65.61;97517.94;4987563;28;20625;-84
2023/06/22 00:10:46;;;;;;;7.20;6.50;;;;;;;24.61;64.87;97552.72;5005416;28;20192;-84
2023/06/22 00:13:12;;;;;;;7.47;6.68;;;;;;;24.52;65.84;97570.63;4974952;28;20350;-86
2023/06/22 00:15:38;;;;;;;7.63;6.93;;;;;;;24.45;65.52;97547.97;4997945;28;20459;-86
2023/06/22 00:18:05;;;;;;;8.82;8.00;;;;;;;24.34;65.89;97509.53;5015784;28;20196;-87
2023/06/22 00:23:13;;;;;;;10.63;8.13;;;;;;;24.16;66.60;97353.81;5881545;22;20237;-90
2023/06/22 00:25:41;;;;;;;9.27;8.00;;;;;;;23.66;68.63;97210.06;4950907;28;20184;-87
2023/06/22 00:28:07;;;;;;;9.50;7.97;;;;;;;23.41;69.71;97198.59;4969282;28;20262;-88
2023/06/22 00:30:35;;;;;;;9.50;7.78;;;;;;;23.47;69.79;97234.47;4979295;28;20259;-89
2023/06/22 00:33:01;;;;;;;8.88;7.90;;;;;;;23.60;68.57;97277.84;4974112;28;20281;-88
2023/06/22 00:38:03;;;;;;;9.43;7.43;;;;;;;24.02;67.88;97303.56;5532648;23;20490;-88
2023/06/22 00:40:29;;;;;;;8.10;7.30;;;;;;;24.07;67.27;97344.03;4973850;28;20272;-88
2023/06/22 00:45:29;;;;;;;9.32;7.85;;;;;;;24.00;67.65;97341.13;5011119;28;20109;-88
2023/06/22 00:47:57;;;;;;;7.45;6.75;;;;;;;23.89;67.88;97334.69;4961653;28;20652;-88
2023/06/22 00:50:24;;;;;;;7.90;7.15;;;;;;;23.86;67.83;97319.38;4952945;28;20101;-88
2023/06/22 00:52:52;;;;;;;8.82;7.85;;;;;;;24.02;67.77;97341.59;4978955;28;20176;-88
2023/06/22 00:55:19;;;;;;;8.80;7.90;;;;;;;23.93;68.36;97333.69;4979418;28;20388;-87
2023/06/22 00:57:46;;;;;;;8.82;7.85;;;;;;;23.89;68.42;97326.72;4981432;28;20297;-87
2023/06/22 01:00:19;;;;;;;8.88;8.05;;;;;;;23.88;68.58;97333.91;4954223;28;20037;-88
2023/06/22 01:02:51;;;;;;;9.40;8.40;;;;;;;23.85;68.54;97325.78;5193128;23;20322;-84
2023/06/22 01:05:18;;;;;;;8.77;7.70;;;;;;;23.92;68.55;97315.41;4939792;28;20253;-84
2023/06/22 01:08:04;;;;;;;9.02;8.13;;;;;;;23.88;68.48;97293.25;4948463;28;20231;-84
2023/06/22 01:10:48;;;;;;;9.75;8.70;;;;;;;23.83;67.94;97286.22;4954509;28;20215;-84
2023/06/22 01:16:10;;;;;;;8.52;7.60;;;;;;;23.78;68.14;97278.44;4339303;22;20715;-81
2023/06/22 01:18:39;;;;;;;9.95;8.93;;;;;;;23.66;68.82;97273.09;4952267;28;20860;-81
2023/06/22 01:21:08;;;;;;;8.93;8.02;;;;;;;23.62;69.39;97285.50;5745317;23;20726;-81
2023/06/22 01:23:45;;;;;;;9.45;8.55;;;;;;;23.58;68.30;97288.03;4953073;28;20029;-82
2023/06/22 01:26:35;;;;;;;9.32;8.43;;;;;;;23.67;68.16;97288.72;4948490;28;20037;-82
2023/06/22 01:29:04;;;;;;;9.57;8.50;;;;;;;23.58;68.18;97280.06;4940214;28;20358;-82
2023/06/22 01:31:29;;;;;;;9.65;8.52;;;;;;;23.53;68.69;97288.22;4956977;28;20025;-81
2023/06/22 01:33:57;;;;;;;9.77;8.88;;;;;;;23.59;69.16;97286.91;4974614;28;20049;-81
2023/06/22 01:44:08;;;;;;;9.25;8.32;;;;;;;23.36;68.96;97279.28;5287397;22;20349;-81
2023/06/22 01:46:38;;;;;;;9.63;8.73;;;;;;;23.47;68.33;97286.84;4959340;28;20588;-81
2023/06/22 01:49:04;;;;;;;9.30;8.40;;;;;;;23.43;68.61;97283.31;4970043;28;20498;-81
2023/06/22 01:54:07;;;;;;;9.32;8.32;;;;;;;23.21;68.58;97257.84;4489383;22;20027;-81
2023/06/22 01:56:32;;;;;;;8.98;8.10;;;;;;;23.32;68.44;97289.03;4970084;28;20239;-81
2023/06/22 02:09:16;;;;;;;9.48;8.57;;;;;;;23.21;68.99;97277.22;5047249;22;20046;-81
2023/06/22 02:11:44;;;;;;;9.18;8.23;;;;;;;23.15;69.14;97274.00;4914788;28;20040;-82
2023/06/22 02:14:10;;;;;;;9.18;8.38;;;;;;;23.15;69.11;97270.53;4943342;28;20025;-81
2023/06/22 02:16:35;;;;;;;8.38;7.60;;;;;;;23.11;68.48;97266.97;4934273;28;20025;-81
2023/06/22 02:24:26;;;;;;;9.07;8.23;;;;;;;23.09;68.42;97250.59;5193448;22;20064;-80
2023/06/22 02:26:52;;;;;;;9.07;8.20;;;;;;;23.07;68.49;97244.84;4958369;28;20237;-80
2023/06/22 02:29:17;;;;;;;9.75;8.85;;;;;;;22.98;68.85;97242.22;5104442;23;20043;-81
2023/06/22 02:31:43;;;;;;;9.75;8.75;;;;;;;23.00;69.24;97240.78;4971027;28;20029;-82
2023/06/22 02:34:08;;;;;;;10.27;9.32;;;;;;;22.91;68.99;97237.41;4992100;28;20043;-80
2023/06/22 02:36:34;;;;;;;9.48;8.48;;;;;;;22.91;69.56;97242.72;4979377;28;20041;-80
2023/06/22 02:39:01;;;;;;;9.50;8.45;;;;;;;22.74;68.92;97217.06;5540228;22;20076;-81
2023/06/22 02:41:27;;;;;;;11.00;9.68;;;;;;;22.90;69.26;97235.84;4973032;28;20245;-80
2023/06/22 02:43:52;;;;;;;10.68;9.30;;;;;;;22.94;69.31;97242.06;4963270;28;20284;-81
2023/06/22 02:48:53;;;;;;;10.38;9.32;;;;;;;22.90;69.54;97229.78;5246565;22;20034;-81
2023/06/22 02:51:19;;;;;;;10.57;9.45;;;;;;;22.91;69.57;97223.34;5174364;23;20392;-82
2023/06/22 02:53:45;;;;;;;11.10;10.10;;;;;;;22.83;69.55;97222.31;4969797;28;20357;-81
2023/06/22 02:56:10;;;;;;;10.77;9.68;;;;;;;22.81;69.22;97211.25;5385360;22;20028;-80
2023/06/22 03:03:46;;;;;;;10.63;9.63;;;;;;;22.73;69.58;97188.97;5497801;22;20394;-82
2023/06/22 03:06:13;;;;;;;11.40;10.07;;;;;;;22.85;69.69;97204.19;5035869;23;20037;-81
2023/06/22 03:11:15;;;;;;;10.00;8.95;;;;;;;22.87;69.34;97183.41;5099612;22;20335;-81
2023/06/22 03:13:41;;;;;;;9.32;8.43;;;;;;;22.79;69.10;97182.38;5069920;22;20020;-82
2023/06/22 03:16:06;;;;;;;10.65;9.65;;;;;;;22.83;69.49;97198.44;4993353;28;20033;-81
2023/06/22 03:18:33;;;;;;;12.13;9.57;;;;;;;22.81;69.20;97204.06;4954940;28;20402;-81
2023/06/22 03:20:58;;;;;;;10.63;9.32;;;;;;;22.79;68.96;97208.91;4947170;28;20133;-81
2023/06/22 03:23:24;;;;;;;9.07;8.13;;;;;;;22.81;68.91;97205.94;4983900;28;20017;-82
2023/06/22 03:25:49;;;;;;;9.45;8.55;;;;;;;22.81;68.91;97206.72;4967476;28;20059;-82
2023/06/22 03:28:14;;;;;;;8.48;7.68;;;;;;;22.85;68.97;97204.19;4933952;28;20017;-82
2023/06/22 03:30:40;;;;;;;8.82;7.95;;;;;;;22.89;68.77;97201.66;4966917;28;20017;-83
2023/06/22 03:33:05;;;;;;;8.90;8.00;;;;;;;22.79;68.89;97197.50;4932789;28;20028;-83
2023/06/22 03:35:31;;;;;;;9.60;7.85;;;;;;;22.80;68.73;97199.84;4973557;28;20760;-82
2023/06/22 03:37:56;;;;;;;16.23;8.80;;;;;;;22.82;68.39;97204.81;4970366;28;20865;-82
2023/06/22 03:40:22;;;;;;;9.98;8.98;;;;;;;22.73;68.46;97196.94;4937264;28;20068;-82
2023/06/22 03:42:47;;;;;;;9.10;8.20;;;;;;;22.68;68.56;97194.47;4941929;28;20094;-81
2023/06/22 03:45:12;;;;;;;9.55;8.55;;;;;;;22.73;69.07;97204.13;4957613;28;20079;-82
2023/06/22 03:47:38;;;;;;;8.88;8.05;;;;;;;22.72;68.42;97206.00;4975798;28;20863;-82
2023/06/22 03:50:04;;;;;;;10.10;9.10;;;;;;;22.68;68.74;97209.63;4967373;28;20036;-84
2023/06/22 03:52:30;;;;;;;9.40;8.23;;;;;;;22.71;68.75;97222.25;4933307;28;20100;-83
2023/06/22 03:54:56;;;;;;;9.57;8.68;;;;;;;22.69;68.86;97209.31;4931932;28;20086;-82
2023/06/22 03:57:21;;;;;;;10.10;9.20;;;;;;;22.60;68.69;97203.25;4932904;28;20044;-83
2023/06/22 03:59:46;;;;;;;9.85;8.85;;;;;;;22.69;68.94;97213.81;4950844;28;20033;-82
2023/06/22 04:02:12;;;;;;;10.20;8.98;;;;;;;22.72;68.96;97213.19;4945995;28;20617;-81
2023/06/22 04:04:39;;;;;;;10.32;9.27;;;;;;;22.70;68.98;97210.06;4937817;28;20049;-82
2023/06/22 04:07:04;;;;;;;9.73;8.77;;;;;;;22.69;69.05;97213.81;4939066;28;20116;-83
2023/06/22 04:09:30;;;;;;;9.68;8.75;;;;;;;22.71;69.28;97211.63;4932119;28;20114;-82
2023/06/22 04:11:55;;;;;;;9.68;8.75;;;;;;;22.69;69.03;97219.91;4934386;28;20018;-82
2023/06/22 04:14:21;;;;;;;9.52;8.57;;;;;;;22.67;69.08;97211.50;4961352;28;20037;-82
2023/06/22 04:16:46;;;;;;;10.35;9.35;;;;;;;22.68;69.05;97209.63;4938534;28;20088;-82
2023/06/22 04:19:16;;;;;;;10.50;9.50;;;;;;;22.61;69.33;97202.16;4936353;28;20719;-82
2023/06/22 04:21:43;;;;;;;10.65;9.60;;;;;;;22.60;69.38;97196.09;4958775;28;20048;-82
2023/06/22 04:24:08;;;;;;;11.27;10.07;;;;;;;22.59;68.99;97202.47;4967732;28;20516;-82
2023/06/22 04:26:36;;;;;;;11.35;10.25;;;;;;;22.60;69.64;97203.25;4928264;28;20157;-83
2023/06/22 04:29:05;;;;;;;11.13;10.00;;;;;;;22.62;69.44;97201.84;4950822;28;20025;-83
2023/06/22 04:31:36;;;;;;;11.00;9.90;;;;;;;22.62;69.92;97195.78;4951102;28;20029;-84
2023/06/22 04:34:08;;;;;;;10.93;9.82;;;;;;;22.70;69.85;97207.41;4951975;28;20016;-84
2023/06/22 04:36:39;;;;;;;12.63;11.32;;;;;;;22.84;70.00;97202.63;4948575;28;20041;-84
2023/06/22 04:39:06;;;;;;;12.25;10.82;;;;;;;22.81;70.08;97200.63;4925411;28;20719;-82
2023/06/22 04:41:41;;;;;;;11.63;10.30;;;;;;;22.84;69.79;97205.28;4949178;28;20020;-85
2023/06/22 04:44:25;;;;;;;12.13;10.93;;;;;;;22.94;70.22;97204.88;4933525;28;20021;-84
2023/06/22 04:46:53;;;;;;;12.25;10.88;;;;;;;22.98;69.83;97194.41;4947274;28;20092;-84
2023/06/22 04:49:20;;;;;;;11.85;10.27;;;;;;;23.09;69.94;97195.59;4961428;28;20063;-84
2023/06/22 04:51:46;;;;;;;12.52;11.32;;;;;;;23.04;69.84;97187.03;4928649;28;20021;-85
2023/06/22 04:54:14;;;;;;;12.23;10.95;;;;;;;23.16;69.99;97192.41;4948928;28;20036;-85
2023/06/22 04:56:40;;;;;;;12.77;11.45;;;;;;;23.18;70.09;97187.53;4933341;28;20041;-85
2023/06/22 04:59:06;;;;;;;13.40;12.00;;;;;;;23.23;69.68;97187.34;4923950;28;20029;-84
2023/06/22 05:01:32;;;;;;;13.60;11.43;;;;;;;23.31;69.74;97178.53;4951437;28;20086;-85
2023/06/22 05:04:00;;;;;;;13.40;12.07;;;;;;;23.33;69.50;97186.94;4955570;28;20049;-82
2023/06/22 05:06:26;;;;;;;15.07;12.07;;;;;;;23.37;69.53;97173.78;4932539;28;20032;-87
2023/06/22 05:08:59;;;;;;;13.23;11.93;;;;;;;23.44;69.05;97179.34;4948889;28;20565;-84
2023/06/22 05:11:28;;;;;;;12.68;11.45;;;;;;;23.30;69.18;97142.41;4944457;28;20029;-83
2023/06/22 05:13:53;;;;;;;13.18;11.88;;;;;;;23.52;69.27;97167.84;4963549;28;20032;-85
2023/06/22 05:16:26;;;;;;;14.23;12.70;;;;;;;23.41;69.18;97153.44;4948661;28;20875;-82
2023/06/22 05:18:53;;;;;;;15.32;13.63;;;;;;;23.52;69.13;97159.09;4942777;28;20033;-84
2023/06/22 05:21:19;;;;;;;14.05;12.68;;;;;;;23.51;69.17;97168.16;4932388;28;20080;-86
2023/06/22 05:23:44;;;;;;;13.80;12.50;;;;;;;23.68;69.96;97164.53;4945939;28;20213;-85
2023/06/22 05:26:10;;;;;;;14.63;12.68;;;;;;;23.62;68.85;97152.59;4958805;28;20033;-84
2023/06/22 05:28:35;;;;;;;13.95;12.50;;;;;;;23.63;69.20;97148.81;4939716;28;20052;-85
2023/06/22 05:31:01;;;;;;;15.20;13.63;;;;;;;23.64;69.06;97139.72;4946650;28;20021;-84
2023/06/22 05:33:26;;;;;;;14.20;12.73;;;;;;;23.76;69.12;97145.06;4971014;28;20025;-84
2023/06/22 05:35:51;;;;;;;13.68;12.27;;;;;;;23.85;68.70;97161.69;4956292;28;20040;-85
2023/06/22 05:38:17;;;;;;;15.20;12.52;;;;;;;23.74;69.52;97171.97;4959247;28;20025;-85
2023/06/22 05:40:42;;;;;;;13.75;12.32;;;;;;;23.84;68.99;97143.44;4934305;28;20052;-86
2023/06/22 05:43:08;;;;;;;15.45;13.95;;;;;;;24.17;69.14;97166.50;4953243;28;20025;-85
2023/06/22 05:45:33;;;;;;;15.45;13.82;;;;;;;24.16;68.14;97167.59;4956853;28;20703;-84
2023/06/22 05:48:02;;;;;;;15.18;12.82;;;;;;;24.17;67.56;97147.88;4957850;28;20072;-83
2023/06/22 05:50:27;;;;;;;14.73;13.18;;;;;;;24.09;67.99;97139.69;4938305;28;20575;-86
2023/06/22 05:52:53;;;;;;;14.43;13.02;;;;;;;24.21;68.63;97146.84;4939790;28;20037;-84
2023/06/22 05:55:18;;;;;;;13.10;11.93;;;;;;;24.42;67.53;97156.59;4959111;28;20017;-83
2023/06/22 05:57:44;;;;;;;14.57;13.07;;;;;;;24.47;67.97;97154.47;4949852;28;20052;-85
2023/06/22 06:00:11;;;;;;;15.18;13.60;;;;;;;24.46;67.43;97152.16;4934251;28;20025;-86
2023/06/22 06:02:36;;;;;;;14.55;13.15;;;;;;;24.42;67.18;97145.94;4950150;28;20052;-83
2023/06/22 06:05:03;;;;;;;14.00;12.70;;;;;;;24.41;67.14;97133.75;4933643;28;20408;-85
2023/06/22 06:07:29;;;;;;;13.38;12.07;;;;;;;24.68;66.71;97165.00;4955710;28;20569;-83
2023/06/22 06:09:54;;;;;;;13.48;12.18;;;;;;;24.60;67.29;97151.81;4952995;28;20052;-84
2023/06/22 06:12:20;;;;;;;14.52;13.13;;;;;;;24.71;66.54;97147.59;4954347;28;20591;-83
2023/06/22 06:14:47;;;;;;;13.93;12.57;;;;;;;24.85;66.22;97153.31;4943205;28;20030;-83
2023/06/22 06:17:12;;;;;;;13.27;12.00;;;;;;;24.97;66.54;97160.47;4949745;28;20652;-84
2023/06/22 06:19:38;;;;;;;12.73;11.60;;;;;;;24.94;66.25;97155.06;4949707;28;20028;-83
2023/06/22 06:22:03;;;;;;;13.80;12.50;;;;;;;24.97;65.57;97151.72;4950981;28;20040;-84
2023/06/22 06:24:29;;;;;;;13.82;12.48;;;;;;;25.00;65.91;97143.81;4956801;28;20017;-82
2023/06/22 06:26:55;;;;;;;13.50;12.10;;;;;;;25.10;65.84;97153.19;4961757;28;20025;-83
2023/06/22 06:29:20;;;;;;;13.43;12.23;;;;;;;25.10;65.95;97147.09;4931973;28;20171;-83
2023/06/22 06:31:46;;;;;;;12.90;11.70;;;;;;;25.23;65.31;97146.69;4934704;28;20052;-83
2023/06/22 06:34:11;;;;;;;12.65;11.45;;;;;;;25.43;64.97;97154.84;4933905;28;20086;-82
2023/06/22 06:36:37;;;;;;;13.57;12.25;;;;;;;25.38;64.74;97133.78;4942493;28;20029;-85
2023/06/22 06:39:03;;;;;;;13.13;11.82;;;;;;;25.48;65.42;97145.81;4925737;28;20708;-83
2023/06/22 06:41:29;;;;;;;13.50;12.10;;;;;;;25.80;64.80;97157.28;4935514;28;20172;-82
2023/06/22 06:43:54;;;;;;;14.02;12.57;;;;;;;25.92;64.45;97154.50;4958387;28;20025;-84
2023/06/22 06:46:20;;;;;;;13.07;11.88;;;;;;;26.09;63.20;97157.97;4932859;28;20315;-84
2023/06/22 06:48:45;;;;;;;13.90;12.60;;;;;;;25.91;62.92;97139.63;4943039;28;20244;-84
2023/06/22 06:51:10;;;;;;;13.27;11.98;;;;;;;25.95;63.28;97158.41;4939779;28;20021;-84
2023/06/22 06:53:37;;;;;;;12.85;11.57;;;;;;;25.86;62.87;97129.22;4937087;28;20376;-85
2023/06/22 06:56:05;;;;;;;11.18;10.15;;;;;;;26.20;62.52;97131.50;4954615;28;20048;-83
2023/06/22 06:58:30;;;;;;;12.10;11.02;;;;;;;26.22;62.69;97143.41;4913630;28;20064;-85
2023/06/22 07:00:56;;;;;;;12.07;10.88;;;;;;;26.17;62.71;97149.00;4958877;28;20575;-83
2023/06/22 07:03:21;;;;;;;11.65;10.65;;;;;;;26.45;62.16;97158.75;4957546;28;20091;-83
2023/06/22 07:05:47;;;;;;;11.05;10.07;;;;;;;26.67;61.71;97150.09;4942073;28;20526;-84
2023/06/22 07:08:12;;;;;;;11.38;10.25;;;;;;;26.89;61.08;97145.19;4956110;28;20029;-82
2023/06/22 07:10:38;;;;;;;11.93;10.82;;;;;;;27.14;61.00;97144.88;4959278;28;20227;-83
2023/06/22 07:13:03;;;;;;;11.50;10.40;;;;;;;27.20;59.19;97138.13;4941508;28;20036;-83
2023/06/22 07:15:28;;;;;;;11.35;10.35;;;;;;;27.10;59.98;97140.22;4939962;28;20044;-83
2023/06/22 07:17:54;;;;;;;10.20;9.30;;;;;;;27.25;58.75;97145.84;4915792;28;20029;-84
2023/06/22 07:20:19;;;;;;;9.23;8.32;;;;;;;27.31;59.72;97155.16;4948074;28;20036;-83
2023/06/22 07:22:45;;;;;;;9.35;8.55;;;;;;;27.58;58.39;97158.69;4930291;28;20091;-83
2023/06/22 07:25:14;;;;;;;10.02;9.23;;;;;;;27.65;58.04;97153.44;4940191;28;20109;-83
2023/06/22 07:27:43;;;;;;;9.38;8.48;;;;;;;27.60;58.01;97147.63;4943355;28;20028;-84
2023/06/22 07:30:10;;;;;;;8.98;8.18;;;;;;;27.74;58.75;97158.53;4959290;28;20033;-83
2023/06/22 07:32:36;;;;;;;8.05;7.28;;;;;;;28.16;56.76;97148.91;4923011;28;20078;-84
2023/06/22 07:35:02;;;;;;;9.05;8.15;;;;;;;28.17;53.96;97145.06;4958201;28;20012;-82
2023/06/22 07:37:28;;;;;;;8.30;7.20;;;;;;;28.16;54.90;97138.19;4924197;28;20291;-82
2023/06/22 07:39:58;;;;;;;7.97;7.20;;;;;;;28.30;56.05;97145.66;4943343;28;20247;-84
2023/06/22 07:42:27;;;;;;;7.25;6.55;;;;;;;28.54;55.22;97137.16;4977973;28;20181;-83
2023/06/22 07:44:53;;;;;;;7.90;7.20;;;;;;;28.29;53.73;97117.31;4926752;28;20024;-83
2023/06/22 07:47:19;;;;;;;7.03;6.43;;;;;;;28.61;54.02;97130.38;4920242;28;20703;-83
2023/06/22 07:49:45;;;;;;;8.00;7.30;;;;;;;28.48;54.15;97127.91;4974200;28;20040;-83
2023/06/22 07:52:11;;;;;;;8.18;7.32;;;;;;;28.46;54.69;97132.06;4958595;28;20911;-82
2023/06/22 07:54:36;;;;;;;7.68;6.97;;;;;;;28.13;54.76;97118.25;4929331;28;20045;-82
2023/06/22 07:57:02;;;;;;;7.75;7.03;;;;;;;27.99;54.29;97102.00;4922268;28;20041;-84
2023/06/22 07:59:28;;;;;;;7.75;7.05;;;;;;;28.11;54.55;97107.13;4923503;28;20225;-83
2023/06/22 08:01:55;;;;;;;7.13;6.47;;;;;;;28.09;54.79;97116.69;4945305;28;20847;-83
2023/06/22 08:04:21;;;;;;;7.55;6.85;;;;;;;28.10;54.60;97105.59;4921311;28;20258;-84
2023/06/22 08:06:46;;;;;;;7.90;7.20;;;;;;;28.16;54.35;97106.06;4927798;28;20024;-84
2023/06/22 08:09:12;;;;;;;7.32;6.72;;;;;;;28.25;54.99;97105.81;4978929;28;20033;-84
2023/06/22 08:11:37;;;;;;;6.80;6.20;;;;;;;28.46;54.21;97122.13;4936373;28;20031;-82
2023/06/22 08:14:03;;;;;;;8.90;7.30;;;;;;;28.28;53.99;97116.56;4924615;28;20695;-82
2023/06/22 08:16:28;;;;;;;8.05;7.25;;;;;;;28.27;52.81;97093.56;4929377;28;20027;-84
2023/06/22 08:18:54;;;;;;;7.47;6.82;;;;;;;28.70;53.95;97112.13;4924401;28;20136;-84
2023/06/22 08:21:20;;;;;;;7.55;6.85;;;;;;;28.87;52.66;97100.81;4941776;28;20118;-82
2023/06/22 08:23:45;;;;;;;7.43;6.55;;;;;;;28.88;51.69;97101.59;4928988;28;20693;-85
2023/06/22 08:26:10;;;;;;;8.05;7.35;;;;;;;28.73;51.54;97089.94;4928737;28;20031;-83
2023/06/22 08:28:36;;;;;;;7.43;6.72;;;;;;;29.00;50.22;97105.94;4949448;28;20036;-85
2023/06/22 08:31:02;;;;;;;6.82;6.18;;;;;;;29.12;50.88;97097.63;4927144;28;20052;-84
2023/06/22 08:33:30;;;;;;;6.47;5.95;;;;;;;29.29;51.31;97107.00;4929062;28;20040;-84
2023/06/22 08:35:55;;;;;;;6.88;6.20;;;;;;;29.25;50.47;97096.25;4930305;28;20832;-82
2023/06/22 08:38:21;;;;;;;7.28;6.68;;;;;;;28.83;50.86;97100.03;4942363;28;20033;-84
2023/06/22 08:40:49;;;;;;;6.50;5.90;;;;;;;28.69;51.55;97063.13;4951506;28;20036;-84
2023/06/22 08:43:14;;;;;;;6.95;6.35;;;;;;;28.81;53.30;97074.75;4941154;28;20029;-83
2023/06/22 08:45:40;;;;;;;7.40;6.70;;;;;;;28.81;51.37;97086.22;4928292;28;20891;-83
2023/06/22 08:48:05;;;;;;;6.55;6.05;;;;;;;28.86;51.97;97088.56;4947015;28;20110;-85
2023/06/22 08:50:31;;;;;;;6.90;6.30;;;;;;;28.96;51.26;97113.91;4918763;28;20025;-84
2023/06/22 08:52:56;;;;;;;7.03;6.43;;;;;;;28.84;50.99;97098.09;4947896;28;20037;-83
2023/06/22 08:55:22;;;;;;;8.05;7.25;;;;;;;29.03;50.26;97099.81;4931838;28;20484;-83
2023/06/22 08:57:47;;;;;;;7.55;6.85;;;;;;;29.03;51.29;97105.97;4945704;28;20036;-83
2023/06/22 09:00:18;;;;;;;6.30;5.80;;;;;;;29.03;51.39;97113.22;4926490;28;20092;-82
2023/06/22 09:02:44;;;;;;;7.70;7.00;;;;;;;28.71;51.42;97090.31;4939805;28;20087;-83
2023/06/22 09:05:10;;;;;;;7.78;7.05;;;;;;;28.90;52.26;97093.97;4924038;28;20875;-86
2023/06/22 09:07:35;;;;;;;7.65;6.75;;;;;;;28.87;50.66;97065.97;4955889;28;20077;-85
2023/06/22 09:10:01;;;;;;;8.65;7.75;;;;;;;29.41;51.74;97084.50;4928911;28;20749;-87
2023/06/22 09:12:27;;;;;;;7.50;6.90;;;;;;;29.66;49.05;97064.00;4936831;28;20713;-83
2023/06/22 09:14:53;;;;;;;7.13;6.47;;;;;;;29.97;49.27;97078.03;4947793;28;20029;-82
2023/06/22 09:17:19;;;;;;;7.72;6.35;;;;;;;30.10;49.30;97086.53;4935777;28;20029;-83
2023/06/22 09:19:44;;;;;;;7.72;7.00;;;;;;;30.34;48.20;97060.94;4955571;28;20080;-84
2023/06/22 09:22:10;;;;;;;7.43;6.65;;;;;;;30.50;47.04;97073.31;4947303;28;20737;-83
2023/06/22 09:24:36;;;;;;;7.07;6.35;;;;;;;30.47;47.18;97071.38;4956442;28;20516;-85
2023/06/22 09:27:01;;;;;;;8.43;6.63;;;;;;;30.57;46.54;97054.53;4943641;28;20618;-84
2023/06/22 09:29:27;;;;;;;7.30;6.60;;;;;;;31.12;46.65;97053.50;4963576;28;20404;-83
2023/06/22 09:31:53;;;;;;;7.18;6.45;;;;;;;31.29;43.98;97055.47;4933959;28;20904;-84
2023/06/22 09:34:20;;;;;;;6.28;5.68;;;;;;;32.04;46.98;97051.88;4950340;28;20032;-84
2023/06/22 09:36:46;;;;;;;6.55;5.80;;;;;;;32.53;46.55;97054.81;4933699;28;20101;-84
2023/06/22 09:39:12;;;;;;;7.03;6.32;;;;;;;32.53;43.20;97037.91;4938107;28;20033;-83
2023/06/22 09:41:38;;;;;;;6.88;6.18;;;;;;;32.78;43.73;97032.38;4963031;28;20134;-85
2023/06/22 09:44:04;;;;;;;6.50;5.90;;;;;;;33.19;42.13;97029.03;4948039;28;20246;-84
2023/06/22 09:46:29;;;;;;;7.30;5.75;;;;;;;33.32;43.17;97027.38;4935244;28;20529;-84
2023/06/22 09:48:55;;;;;;;7.35;6.63;;;;;;;33.54;43.96;97024.50;4965695;28;20033;-82
2023/06/22 09:51:23;;;;;;;7.45;6.75;;;;;;;33.70;41.15;97019.31;4947712;28;20079;-83
2023/06/22 09:53:49;;;;;;;6.70;6.10;;;;;;;33.18;40.68;97014.00;4943956;28;20048;-86
2023/06/22 09:56:15;;;;;;;7.47;6.22;;;;;;;33.08;39.09;96993.25;4959103;28;20021;-85
2023/06/22 09:58:42;;;;;;;6.32;5.22;;;;;;;33.06;40.24;96996.34;4932500;28;20017;-85
2023/06/22 10:01:08;;;;;;;7.43;5.45;;;;;;;32.90;38.93;96977.97;4951786;28;20037;-84
2023/06/22 10:03:33;;;;;;;7.57;6.10;;;;;;;33.26;41.31;96980.38;4934476;28;20098;-83
2023/06/22 10:05:59;;;;;;;5.35;4.68;;;;;;;33.86;38.52;96989.09;4967531;28;20039;-83
2023/06/22 10:08:27;;;;;;;7.68;6.55;;;;;;;34.30;39.86;97003.59;4933415;28;20609;-86
2023/06/22 10:10:53;;;;;;;9.48;5.57;;;;;;;34.09;36.52;96984.94;4931231;28;20097;-85
2023/06/22 10:13:19;;;;;;;7.72;5.63;;;;;;;34.38;36.00;96993.47;4946285;28;22428;-84
2023/06/22 10:15:51;;;;;;;6.30;5.30;;;;;;;34.09;37.85;96977.59;4957764;28;20029;-82
2023/06/22 10:18:17;;;;;;;6.75;5.65;;;;;;;33.94;39.27;96962.75;4956062;28;20021;-83
2023/06/22 10:20:43;;;;;;;6.13;5.57;;;;;;;34.29;37.18;96976.97;5003982;23;20060;-86
2023/06/22 10:23:09;;;;;;;7.90;5.88;;;;;;;34.44;36.26;96970.22;4941522;28;20045;-85
2023/06/22 10:25:34;;;;;;;7.10;6.20;;;;;;;34.33;37.22;96975.00;4918726;28;20735;-84
2023/06/22 10:28:00;;;;;;;5.80;5.30;;;;;;;34.35;37.22;96978.06;4925483;28;20045;-84
2023/06/22 10:30:25;;;;;;;7.03;6.10;;;;;;;34.60;35.98;96966.13;4991409;23;20613;-83
2023/06/22 10:32:54;;;;;;;8.50;5.65;;;;;;;34.87;37.32;96980.44;4961219;28;20138;-85
2023/06/22 10:35:20;;;;;;;6.00;5.40;;;;;;;35.17;35.73;96978.78;4984526;23;20058;-84
2023/06/22 10:37:46;;;;;;;7.47;5.88;;;;;;;35.28;35.50;96959.66;4900835;28;20102;-84
2023/06/22 10:40:13;;;;;;;7.63;6.47;;;;;;;35.28;34.66;96950.78;4906151;28;20142;-85
2023/06/22 10:42:39;;;;;;;8.50;5.95;;;;;;;35.47;35.00;96939.22;4923987;28;20426;-85
2023/06/22 10:45:05;;;;;;;6.53;5.85;;;;;;;35.34;37.05;96962.69;4926919;28;20037;-84
2023/06/22 10:47:31;;;;;;;7.22;5.40;;;;;;;35.54;36.62;96933.69;4924655;28;20026;-85
2023/06/22 10:49:56;;;;;;;7.20;5.43;;;;;;;35.72;35.07;96949.59;4896417;28;20053;-85
2023/06/22 10:52:22;;;;;;;8.50;6.03;;;;;;;35.78;35.89;96949.88;4910982;28;20165;-86
2023/06/22 10:54:47;;;;;;;7.82;5.43;;;;;;;36.11;34.32;96972.44;4906144;28;20029;-86
2023/06/22 10:57:13;;;;;;;6.50;5.80;;;;;;;36.18;33.12;96952.53;4902880;28;20023;-86
2023/06/22 10:59:39;;;;;;;6.63;6.00;;;;;;;36.33;33.19;96961.91;4891957;28;20060;-85
2023/06/22 11:02:05;;;;;;;6.28;5.68;;;;;;;36.53;33.18;96953.69;4900045;28;20041;-84
2023/06/22 11:04:30;;;;;;;7.93;5.88;;;;;;;35.63;33.27;96928.47;4893395;28;20738;-85
2023/06/22 11:06:56;;;;;;;6.75;6.05;;;;;;;35.73;35.60;96928.69;4900532;28;20026;-84
2023/06/22 11:09:21;;;;;;;6.18;5.57;;;;;;;36.04;36.60;96947.41;4907047;28;20589;-85
2023/06/22 11:11:48;;;;;;;6.68;5.38;;;;;;;36.30;34.96;96940.31;4901751;28;20022;-83
2023/06/22 11:14:13;;;;;;;7.00;6.28;;;;;;;36.35;34.97;96964.22;4920982;28;20038;-84
2023/06/22 11:16:39;;;;;;;6.05;5.65;;;;;;;36.22;35.14;96953.25;4929792;28;20384;-86
2023/06/22 11:19:05;;;;;;;7.60;6.22;;;;;;;36.11;33.25;96936.44;4904546;28;20414;-84
2023/06/22 11:21:31;;;;;;;8.63;6.03;;;;;;;36.31;34.24;96953.44;4886668;28;20066;-84
2023/06/22 11:23:57;;;;;;;6.25;5.75;;;;;;;36.28;32.82;96957.00;4894472;28;20478;-84
2023/06/22 11:26:23;;;;;;;7.00;6.07;;;;;;;36.20;33.13;96931.19;4919035;28;20026;-84
2023/06/22 11:28:48;;;;;;;6.60;5.60;;;;;;;36.18;35.08;96939.75;4882479;28;20723;-85
2023/06/22 11:31:14;;;;;;;8.45;6.00;;;;;;;36.22;32.50;96953.25;4911183;28;20023;-83
2023/06/22 11:33:40;;;;;;;6.70;5.30;;;;;;;36.26;32.62;96967.50;4891376;28;20105;-85
2023/06/22 11:36:05;;;;;;;6.30;5.35;;;;;;;35.96;34.25;96946.81;4876408;28;20925;-86
2023/06/22 11:38:31;;;;;;;5.55;5.10;;;;;;;35.80;34.06;96951.00;4894604;28;20065;-85
2023/06/22 11:41:00;;;;;;;7.53;5.95;;;;;;;35.72;33.73;96962.38;4899219;28;20296;-85
2023/06/22 11:43:26;;;;;;;6.93;5.63;;;;;;;35.52;34.08;96941.44;4891911;28;20050;-85
2023/06/22 11:45:51;;;;;;;6.55;5.35;;;;;;;35.42;35.49;96943.19;4907503;28;20034;-84
2023/06/22 11:48:17;;;;;;;7.93;6.18;;;;;;;35.48;35.02;96965.13;4902345;28;20035;-84
2023/06/22 11:50:43;;;;;;;8.10;5.78;;;;;;;35.17;34.68;96932.78;4880275;28;20041;-85
2023/06/22 11:53:08;;;;;;;6.32;5.72;;;;;;;35.32;34.16;96943.34;4900658;28;20037;-85
2023/06/22 11:55:34;;;;;;;6.60;6.00;;;;;;;34.92;34.78;96940.56;4893411;28;20070;-84
2023/06/22 11:58:03;;;;;;;6.55;5.68;;;;;;;34.79;35.48;96957.38;4910172;28;20072;-86
2023/06/22 12:00:29;;;;;;;6.38;5.78;;;;;;;34.76;34.99;96947.38;4886636;28;20854;-84
2023/06/22 12:02:55;;;;;;;8.75;6.10;;;;;;;34.66;35.97;96926.63;4891832;28;20034;-85
2023/06/22 12:05:22;;;;;;;7.22;6.45;;;;;;;34.85;35.22;96946.84;4908564;28;20038;-86
2023/06/22 12:07:48;;;;;;;7.60;6.03;;;;;;;34.86;35.52;96924.78;4917451;28;20412;-84
2023/06/22 12:10:13;;;;;;;7.13;6.10;;;;;;;34.99;35.64;96940.44;4919127;28;20100;-86
2023/06/22 12:12:39;;;;;;;5.93;5.38;;;;;;;35.16;35.90;96952.13;4908216;28;20745;-85